createdAt,value
2018-01-13T00:00:32.896Z,91.63
2018-01-13T00:01:37.506Z,91.63
2018-01-13T00:02:41.976Z,91.65
2018-01-13T00:03:46.614Z,91.66
2018-01-13T00:04:51.223Z,91.65
2018-01-13T00:05:56.121Z,91.67
2018-01-13T00:07:00.735Z,91.67
2018-01-13T00:08:05.335Z,91.68
2018-01-13T00:09:09.956Z,91.68
2018-01-13T00:10:14.608Z,91.70
2018-01-13T00:11:19.224Z,91.71
2018-01-13T00:12:24.312Z,91.71
2018-01-13T00:13:29.012Z,91.70
2018-01-13T00:14:33.681Z,91.71
2018-01-13T00:15:38.314Z,91.71
2018-01-13T00:16:43.062Z,91.72
2018-01-13T00:17:47.780Z,91.72
2018-01-13T00:18:52.818Z,91.74
2018-01-13T00:19:57.536Z,91.76
2018-01-13T00:21:02.284Z,91.76
2018-01-13T00:22:06.999Z,91.79
2018-01-13T00:23:11.768Z,91.86
2018-01-13T00:24:16.467Z,91.88
2018-01-13T00:25:21.618Z,91.88
2018-01-13T00:26:26.320Z,91.88
2018-01-13T00:27:31.019Z,91.93
2018-01-13T00:28:35.639Z,91.98
2018-01-13T00:29:40.348Z,92.01
2018-01-13T00:30:44.938Z,92.02
2018-01-13T00:31:50.043Z,92.06
2018-01-13T00:32:54.691Z,92.07
2018-01-13T00:33:59.401Z,92.11
2018-01-13T00:35:04.147Z,92.13
2018-01-13T00:36:08.822Z,92.14
2018-01-13T00:37:13.507Z,92.20
2018-01-13T00:38:18.540Z,92.22
2018-01-13T00:39:23.732Z,92.26
2018-01-13T00:40:28.440Z,92.34
2018-01-13T00:41:33.248Z,92.41
2018-01-13T00:42:37.983Z,92.45
2018-01-13T00:43:42.696Z,92.45
2018-01-13T00:44:47.383Z,92.46
2018-01-13T00:45:52.226Z,92.43
2018-01-13T00:46:56.874Z,92.44
2018-01-13T00:48:01.602Z,92.48
2018-01-13T00:49:06.312Z,92.48
2018-01-13T00:50:11.501Z,92.49
2018-01-13T00:51:16.069Z,92.49
2018-01-13T00:52:20.746Z,92.50
2018-01-13T00:53:25.460Z,92.50
2018-01-13T00:54:30.187Z,92.51
2018-01-13T00:55:34.950Z,92.48
2018-01-13T00:56:40.143Z,92.48
2018-01-13T00:57:44.812Z,92.49
2018-01-13T00:58:49.522Z,92.51
2018-01-13T00:59:54.127Z,92.51
2018-01-13T01:00:58.839Z,92.52
2018-01-13T01:02:03.526Z,92.51
2018-01-13T01:03:08.676Z,92.56
2018-01-13T01:04:13.374Z,92.56
2018-01-13T01:05:18.093Z,92.60
2018-01-13T01:06:22.769Z,92.58
2018-01-13T01:07:27.403Z,92.54
2018-01-13T01:08:32.020Z,92.55
2018-01-13T01:09:37.076Z,92.54
2018-01-13T01:10:41.702Z,92.60
2018-01-13T01:11:46.302Z,92.60
2018-01-13T01:12:50.924Z,92.62
2018-01-13T01:13:55.612Z,92.63
2018-01-13T01:15:00.348Z,92.64
2018-01-13T01:16:05.478Z,92.62
2018-01-13T01:17:10.210Z,92.63
2018-01-13T01:18:14.978Z,92.67
2018-01-13T01:19:19.643Z,92.65
2018-01-13T01:20:24.340Z,92.67
2018-01-13T01:21:29.074Z,92.66
2018-01-13T01:22:34.243Z,92.69
2018-01-13T01:23:38.972Z,92.67
2018-01-13T01:24:43.652Z,92.68
2018-01-13T01:25:48.368Z,92.70
2018-01-13T01:26:52.959Z,92.70
2018-01-13T01:27:58.616Z,92.72
2018-01-13T01:29:03.617Z,92.75
2018-01-13T01:30:08.318Z,92.73
2018-01-13T01:31:12.983Z,92.68
2018-01-13T01:32:17.632Z,92.70
2018-01-13T01:33:22.288Z,92.73
2018-01-13T01:34:27.003Z,92.75
2018-01-13T01:35:31.979Z,92.75
2018-01-13T01:36:36.652Z,92.75
2018-01-13T01:37:41.364Z,92.75
2018-01-13T01:38:46.005Z,92.81
2018-01-13T01:39:50.714Z,92.86
2018-01-13T01:40:55.380Z,92.87
2018-01-13T01:42:00.733Z,92.86
2018-01-13T01:43:05.407Z,92.84
2018-01-13T01:44:10.153Z,92.87
2018-01-13T01:45:14.807Z,92.88
2018-01-13T01:46:19.524Z,92.88
2018-01-13T01:47:24.168Z,92.89
2018-01-13T01:48:29.187Z,92.88
2018-01-13T01:49:33.915Z,92.90
2018-01-13T01:50:38.756Z,92.92
2018-01-13T01:51:43.427Z,92.92
2018-01-13T01:52:48.143Z,92.89
2018-01-13T01:53:52.807Z,92.99
2018-01-13T01:54:57.971Z,93.01
2018-01-13T01:56:02.640Z,93.08
2018-01-13T01:57:07.303Z,93.22
2018-01-13T01:58:11.943Z,93.21
2018-01-13T01:59:16.636Z,93.24
2018-01-13T02:00:21.300Z,93.24
2018-01-13T02:01:26.455Z,93.22
2018-01-13T02:02:31.591Z,93.28
2018-01-13T02:03:36.255Z,93.36
2018-01-13T02:04:40.969Z,93.42
2018-01-13T02:05:45.672Z,93.50
2018-01-13T02:06:50.370Z,93.56
2018-01-13T02:07:55.489Z,93.66
2018-01-13T02:09:00.143Z,93.77
2018-01-13T02:10:04.758Z,93.86
2018-01-13T02:11:09.477Z,93.91
2018-01-13T02:12:14.122Z,93.93
2018-01-13T02:13:18.788Z,94.00
2018-01-13T02:14:23.892Z,94.07
2018-01-13T02:15:29.154Z,94.14
2018-01-13T02:16:33.804Z,94.22
2018-01-13T02:17:38.553Z,94.30
2018-01-13T02:18:43.246Z,94.38
2018-01-13T02:19:47.919Z,94.44
2018-01-13T02:20:52.973Z,94.49
2018-01-13T02:21:57.745Z,94.52
2018-01-13T02:23:02.397Z,94.52
2018-01-13T02:24:07.126Z,94.54
2018-01-13T02:25:11.809Z,94.58
2018-01-13T02:26:16.572Z,94.55
2018-01-13T02:27:21.735Z,94.59
2018-01-13T02:28:26.494Z,94.62
2018-01-13T02:29:31.187Z,94.67
2018-01-13T02:30:35.865Z,94.74
2018-01-13T02:31:40.533Z,94.75
2018-01-13T02:32:45.220Z,94.73
2018-01-13T02:33:50.242Z,94.75
2018-01-13T02:34:55.025Z,94.71
2018-01-13T02:35:59.712Z,94.68
2018-01-13T02:37:04.400Z,94.63
2018-01-13T02:38:09.106Z,94.59
2018-01-13T02:39:13.861Z,94.59
2018-01-13T02:40:18.927Z,94.60
2018-01-13T02:41:23.582Z,94.61
2018-01-13T02:42:28.271Z,94.57
2018-01-13T02:43:32.963Z,94.56
2018-01-13T02:44:37.806Z,94.61
2018-01-13T02:45:42.737Z,94.59
2018-01-13T02:46:47.209Z,94.58
2018-01-13T02:47:51.749Z,94.57
2018-01-13T02:48:56.343Z,94.60
2018-01-13T02:50:01.062Z,94.60
2018-01-13T02:51:05.827Z,94.60
2018-01-13T02:52:10.736Z,94.63
2018-01-13T02:53:15.370Z,94.66
2018-01-13T02:54:19.941Z,94.65
2018-01-13T02:55:24.557Z,94.64
2018-01-13T02:56:29.158Z,94.63
2018-01-13T02:57:33.745Z,94.62
2018-01-13T02:58:38.625Z,94.64
2018-01-13T02:59:43.389Z,94.66
2018-01-13T03:00:47.968Z,94.66
2018-01-13T03:01:52.559Z,94.73
2018-01-13T03:02:56.992Z,94.74
2018-01-13T03:04:01.418Z,94.82
2018-01-13T03:05:06.206Z,94.88
2018-01-13T03:06:10.749Z,94.88
2018-01-13T03:07:15.191Z,94.87
2018-01-13T03:08:19.792Z,94.93
2018-01-13T03:09:24.354Z,95.03
2018-01-13T03:10:29.030Z,95.07
2018-01-13T03:11:34.038Z,95.13
2018-01-13T03:12:38.713Z,95.20
2018-01-13T03:13:43.190Z,95.24
2018-01-13T03:14:47.591Z,95.30
2018-01-13T03:15:52.014Z,95.33
2018-01-13T03:16:56.478Z,95.37
2018-01-13T03:18:01.370Z,95.46
2018-01-13T03:19:05.948Z,95.55
2018-01-13T03:20:10.566Z,95.60
2018-01-13T03:21:16.037Z,95.65
2018-01-13T03:22:20.718Z,95.72
2018-01-13T03:23:25.308Z,95.76
2018-01-13T03:24:30.278Z,95.77
2018-01-13T03:25:34.900Z,95.77
2018-01-13T03:26:39.570Z,95.77
2018-01-13T03:27:44.148Z,95.79
2018-01-13T03:28:48.721Z,95.79
2018-01-13T03:29:53.313Z,95.80
2018-01-13T03:30:58.297Z,95.78
2018-01-13T03:32:02.882Z,95.85
2018-01-13T03:33:07.464Z,95.92
2018-01-13T03:34:12.044Z,95.99
2018-01-13T03:35:16.629Z,96.08
2018-01-13T03:36:21.227Z,96.11
2018-01-13T03:37:26.213Z,96.15
2018-01-13T03:38:30.840Z,96.13
2018-01-13T03:39:35.416Z,96.14
2018-01-13T03:40:40.048Z,96.15
2018-01-13T03:41:44.638Z,96.14
2018-01-13T03:42:49.221Z,96.12
2018-01-13T03:43:54.252Z,96.10
2018-01-13T03:44:58.920Z,96.04
2018-01-13T03:46:03.572Z,96.00
2018-01-13T03:47:08.241Z,96.00
2018-01-13T03:48:12.907Z,95.98
2018-01-13T03:49:17.579Z,95.93
2018-01-13T03:50:22.621Z,95.91
2018-01-13T03:51:27.322Z,95.86
2018-01-13T03:52:32.143Z,95.81
2018-01-13T03:53:36.976Z,95.75
2018-01-13T03:54:41.648Z,95.72
2018-01-13T03:55:46.370Z,95.71
2018-01-13T03:56:51.346Z,95.67
2018-01-13T03:57:55.987Z,95.64
2018-01-13T03:59:00.592Z,95.60
2018-01-13T04:00:05.166Z,95.58
2018-01-13T04:01:09.744Z,95.54
2018-01-13T04:02:14.362Z,95.49
2018-01-13T04:03:19.378Z,95.44
2018-01-13T04:04:23.952Z,95.39
2018-01-13T04:05:28.593Z,95.33
2018-01-13T04:06:33.172Z,95.27
2018-01-13T04:07:37.608Z,95.23
2018-01-13T04:08:42.168Z,95.22
2018-01-13T04:09:47.226Z,95.21
2018-01-13T04:10:51.887Z,95.22
2018-01-13T04:11:56.581Z,95.21
2018-01-13T04:13:01.259Z,95.19
2018-01-13T04:14:06.042Z,95.19
2018-01-13T04:15:10.776Z,95.14
2018-01-13T04:16:15.896Z,95.07
2018-01-13T04:17:20.519Z,94.98
2018-01-13T04:18:25.121Z,94.89
2018-01-13T04:19:29.719Z,94.83
2018-01-13T04:20:34.292Z,94.83
2018-01-13T04:21:39.370Z,94.82
2018-01-13T04:22:44.200Z,94.84
2018-01-13T04:23:48.829Z,94.85
2018-01-13T04:24:53.458Z,94.86
2018-01-13T04:25:58.032Z,94.85
2018-01-13T04:27:02.755Z,94.80
2018-01-13T04:28:07.635Z,94.77
2018-01-13T04:29:12.224Z,94.75
2018-01-13T04:30:16.813Z,94.72
2018-01-13T04:31:21.228Z,94.70
2018-01-13T04:32:25.648Z,94.67
2018-01-13T04:33:30.098Z,94.64
2018-01-13T04:34:35.144Z,94.52
2018-01-13T04:35:39.779Z,94.42
2018-01-13T04:36:44.355Z,94.41
2018-01-13T04:37:48.956Z,94.34
2018-01-13T04:38:53.531Z,94.22
2018-01-13T04:39:58.283Z,94.22
2018-01-13T04:41:03.241Z,94.18
2018-01-13T04:42:07.812Z,94.20
2018-01-13T04:43:12.398Z,94.10
2018-01-13T04:44:17.064Z,94.10
2018-01-13T04:45:21.680Z,94.05
2018-01-13T04:46:26.345Z,94.06
2018-01-13T04:47:31.340Z,94.06
2018-01-13T04:48:35.942Z,93.96
2018-01-13T04:49:40.561Z,93.95
2018-01-13T04:50:45.144Z,93.97
2018-01-13T04:51:49.774Z,93.94
2018-01-13T04:52:54.350Z,93.97
2018-01-13T04:53:59.557Z,93.95
2018-01-13T04:55:04.158Z,93.90
2018-01-13T04:56:08.773Z,93.85
2018-01-13T04:57:13.416Z,93.85
2018-01-13T04:58:17.856Z,93.87
2018-01-13T04:59:22.264Z,93.89
2018-01-13T05:00:27.186Z,93.87
2018-01-13T05:01:31.720Z,93.86
2018-01-13T05:02:36.235Z,93.84
2018-01-13T05:03:40.883Z,93.90
2018-01-13T05:04:45.601Z,93.97
2018-01-13T05:05:50.224Z,93.94
2018-01-13T05:06:55.258Z,93.89
2018-01-13T05:07:59.935Z,93.97
2018-01-13T05:09:04.727Z,94.01
2018-01-13T05:10:09.451Z,93.98
2018-01-13T05:11:14.130Z,93.92
2018-01-13T05:12:18.779Z,93.87
2018-01-13T05:13:23.766Z,93.83
2018-01-13T05:14:28.434Z,93.73
2018-01-13T05:15:33.064Z,93.65
2018-01-13T05:16:37.841Z,93.66
2018-01-13T05:17:42.476Z,93.66
2018-01-13T05:18:47.066Z,93.60
2018-01-13T05:19:51.753Z,93.55
2018-01-13T05:20:56.251Z,93.48
2018-01-13T05:22:00.740Z,93.42
2018-01-13T05:23:05.226Z,93.39
2018-01-13T05:24:09.753Z,93.40
2018-01-13T05:25:14.379Z,93.41
2018-01-13T05:26:19.484Z,93.43
2018-01-13T05:27:24.090Z,93.47
2018-01-13T05:28:28.619Z,93.45
2018-01-13T05:29:33.100Z,93.40
2018-01-13T05:30:37.564Z,93.37
2018-01-13T05:31:42.906Z,93.34
2018-01-13T05:32:47.833Z,93.34
2018-01-13T05:33:52.632Z,93.33
2018-01-13T05:34:57.119Z,93.33
2018-01-13T05:36:01.585Z,93.33
2018-01-13T05:37:06.118Z,93.29
2018-01-13T05:38:10.627Z,93.36
2018-01-13T05:39:15.428Z,93.26
2018-01-13T05:40:20.009Z,93.21
2018-01-13T05:41:24.600Z,93.21
2018-01-13T05:42:29.023Z,93.22
2018-01-13T05:43:33.460Z,93.12
2018-01-13T05:44:37.913Z,93.11
2018-01-13T05:45:42.845Z,93.05
2018-01-13T05:46:47.372Z,93.07
2018-01-13T05:47:51.845Z,92.97
2018-01-13T05:48:56.379Z,92.88
2018-01-13T05:50:00.884Z,92.85
2018-01-13T05:51:05.398Z,92.85
2018-01-13T05:52:10.419Z,92.79
2018-01-13T05:53:15.018Z,92.67
2018-01-13T05:54:20.363Z,92.65
2018-01-13T05:55:24.939Z,92.61
2018-01-13T05:56:29.640Z,92.57
2018-01-13T05:57:34.238Z,92.46
2018-01-13T05:58:39.295Z,92.40
2018-01-13T05:59:43.886Z,92.28
2018-01-13T06:00:48.474Z,92.22
2018-01-13T06:01:53.181Z,92.06
2018-01-13T06:02:57.709Z,92.00
2018-01-13T06:04:02.292Z,91.98
2018-01-13T06:05:07.356Z,91.91
2018-01-13T06:06:11.969Z,91.88
2018-01-13T06:07:16.645Z,91.89
2018-01-13T06:08:22.497Z,91.87
2018-01-13T06:09:27.070Z,91.87
2018-01-13T06:10:31.651Z,91.90
2018-01-13T06:11:36.684Z,91.90
2018-01-13T06:12:41.301Z,91.86
2018-01-13T06:13:45.874Z,91.84
2018-01-13T06:14:50.538Z,91.83
2018-01-13T06:15:55.225Z,91.82
2018-01-13T06:16:59.856Z,91.79
2018-01-13T06:18:05.024Z,91.78
2018-01-13T06:19:10.012Z,91.79
2018-01-13T06:20:14.677Z,91.83
2018-01-13T06:21:19.366Z,91.85
2018-01-13T06:22:23.960Z,91.79
2018-01-13T06:23:28.808Z,91.73
2018-01-13T06:24:33.822Z,91.71
2018-01-13T06:25:38.554Z,91.70
2018-01-13T06:26:43.124Z,91.69
2018-01-13T06:27:47.795Z,91.69
2018-01-13T06:28:52.380Z,91.70
2018-01-13T06:29:57.038Z,91.72
2018-01-13T06:31:01.777Z,91.68
2018-01-13T06:32:06.217Z,91.66
2018-01-13T06:33:10.632Z,91.64
2018-01-13T06:34:15.046Z,91.61
2018-01-13T06:35:19.487Z,91.60
2018-01-13T06:36:23.932Z,91.61
2018-01-13T06:37:28.850Z,91.66
2018-01-13T06:38:33.826Z,91.70
2018-01-13T06:39:38.269Z,91.72
2018-01-13T06:40:42.859Z,91.69
2018-01-13T06:41:47.490Z,91.68
2018-01-13T06:42:52.158Z,91.66
2018-01-13T06:43:56.778Z,91.73
2018-01-13T06:45:01.451Z,91.63
2018-01-13T06:46:06.656Z,91.57
2018-01-13T06:47:11.268Z,91.54
2018-01-13T06:48:15.959Z,91.52
2018-01-13T06:49:20.941Z,91.52
2018-01-13T06:50:25.644Z,91.55
2018-01-13T06:51:30.263Z,91.55
2018-01-13T06:52:34.888Z,91.57
2018-01-13T06:53:39.468Z,91.58
2018-01-13T06:54:44.083Z,91.57
2018-01-13T06:55:48.969Z,91.61
2018-01-13T06:56:53.659Z,91.61
2018-01-13T06:57:58.268Z,91.61
2018-01-13T06:59:02.872Z,91.63
2018-01-13T07:00:07.498Z,91.67
2018-01-13T07:01:12.148Z,91.70
2018-01-13T07:02:17.203Z,91.73
2018-01-13T07:03:21.812Z,91.74
2018-01-13T07:04:26.389Z,91.75
2018-01-13T07:05:30.998Z,91.79
2018-01-13T07:06:35.609Z,91.75
2018-01-13T07:07:40.200Z,91.80
2018-01-13T07:08:45.289Z,91.83
2018-01-13T07:09:49.960Z,91.87
2018-01-13T07:10:54.516Z,91.86
2018-01-13T07:11:59.094Z,91.82
2018-01-13T07:13:03.748Z,91.81
2018-01-13T07:14:08.395Z,91.85
2018-01-13T07:15:13.495Z,91.86
2018-01-13T07:16:18.201Z,91.87
2018-01-13T07:17:22.672Z,91.91
2018-01-13T07:18:27.252Z,91.90
2018-01-13T07:19:31.881Z,91.91
2018-01-13T07:20:36.569Z,91.91
2018-01-13T07:21:41.748Z,91.88
2018-01-13T07:22:46.395Z,91.88
2018-01-13T07:23:51.143Z,91.87
2018-01-13T07:24:55.700Z,91.85
2018-01-13T07:26:00.498Z,91.84
2018-01-13T07:27:05.196Z,91.83
2018-01-13T07:28:10.287Z,91.79
2018-01-13T07:29:16.141Z,91.80
2018-01-13T07:30:20.917Z,91.84
2018-01-13T07:31:25.594Z,91.80
2018-01-13T07:32:30.101Z,91.72
2018-01-13T07:33:34.665Z,91.67
2018-01-13T07:34:39.600Z,91.59
2018-01-13T07:35:55.908Z,91.58
2018-01-13T07:37:01.813Z,91.56
2018-01-13T07:38:06.531Z,91.56
2018-01-13T07:39:11.208Z,91.55
2018-01-13T07:40:15.842Z,91.64
2018-01-13T07:41:20.962Z,91.66
2018-01-13T07:42:25.534Z,91.66
2018-01-13T07:43:30.750Z,91.64
2018-01-13T07:44:35.339Z,91.61
2018-01-13T07:45:39.947Z,91.60
2018-01-13T07:46:44.596Z,91.62
2018-01-13T07:47:49.721Z,91.61
2018-01-13T07:48:54.407Z,91.53
2018-01-13T07:49:59.046Z,91.51
2018-01-13T07:51:03.982Z,91.54
2018-01-13T07:52:08.659Z,91.54
2018-01-13T07:53:13.420Z,91.54
2018-01-13T07:54:18.637Z,91.55
2018-01-13T07:55:23.317Z,91.50
2018-01-13T07:56:28.063Z,91.53
2018-01-13T07:57:32.738Z,91.46
2018-01-13T07:58:37.396Z,91.41
2018-01-13T07:59:42.140Z,91.38
2018-01-13T08:00:47.371Z,91.39
2018-01-13T08:01:52.091Z,91.39
2018-01-13T08:02:56.863Z,91.36
2018-01-13T08:04:01.967Z,91.33
2018-01-13T08:05:06.686Z,91.31
2018-01-13T08:06:11.559Z,91.29
2018-01-13T08:07:16.780Z,91.24
2018-01-13T08:08:21.503Z,91.23
2018-01-13T08:09:26.298Z,91.24
2018-01-13T08:10:30.851Z,91.23
2018-01-13T08:11:35.501Z,91.20
2018-01-13T08:12:40.165Z,91.16
2018-01-13T08:13:45.267Z,91.11
2018-01-13T08:14:49.901Z,91.06
2018-01-13T08:15:54.618Z,91.06
2018-01-13T08:16:59.498Z,91.06
2018-01-13T08:18:04.174Z,91.07
2018-01-13T08:19:08.741Z,90.99
2018-01-13T08:20:13.750Z,90.95
2018-01-13T08:21:18.282Z,90.92
2018-01-13T08:22:22.904Z,90.87
2018-01-13T08:23:27.485Z,90.82
2018-01-13T08:24:32.233Z,90.78
2018-01-13T08:25:36.999Z,90.72
2018-01-13T08:26:42.020Z,90.67
2018-01-13T08:27:46.655Z,90.58
2018-01-13T08:28:51.407Z,90.53
2018-01-13T08:29:56.135Z,90.46
2018-01-13T08:31:00.873Z,90.39
2018-01-13T08:32:05.741Z,90.27
2018-01-13T08:33:10.803Z,90.20
2018-01-13T08:34:15.791Z,90.18
2018-01-13T08:35:20.552Z,90.11
2018-01-13T08:36:25.239Z,90.03
2018-01-13T08:37:30.665Z,89.98
2018-01-13T08:38:35.382Z,89.96
2018-01-13T08:39:40.347Z,89.92
2018-01-13T08:40:44.884Z,89.68
2018-01-13T08:41:49.449Z,89.66
2018-01-13T08:42:54.060Z,89.61
2018-01-13T08:43:58.595Z,89.54
2018-01-13T08:45:03.126Z,89.42
2018-01-13T08:46:08.008Z,89.30
2018-01-13T08:47:12.575Z,89.15
2018-01-13T08:48:17.112Z,88.90
2018-01-13T08:49:21.685Z,88.88
2018-01-13T08:50:26.264Z,88.91
2018-01-13T08:51:30.908Z,88.87
2018-01-13T08:52:36.003Z,88.66
2018-01-13T08:53:40.583Z,88.48
2018-01-13T08:54:45.083Z,88.33
2018-01-13T08:55:49.791Z,88.25
2018-01-13T08:56:54.470Z,88.27
2018-01-13T08:57:59.376Z,88.17
2018-01-13T08:59:05.620Z,88.14
2018-01-13T09:00:10.558Z,88.16
2018-01-13T09:01:15.411Z,88.11
2018-01-13T09:02:20.270Z,88.05
2018-01-13T09:03:25.146Z,87.95
2018-01-13T09:04:29.924Z,87.92
2018-01-13T09:05:34.929Z,87.90
2018-01-13T09:06:39.698Z,87.80
2018-01-13T09:07:44.421Z,87.78
2018-01-13T09:08:49.119Z,87.67
2018-01-13T09:09:53.873Z,87.63
2018-01-13T09:10:58.631Z,87.63
2018-01-13T09:12:03.722Z,87.65
2018-01-13T09:13:08.488Z,87.60
2018-01-13T09:14:13.334Z,87.56
2018-01-13T09:15:18.051Z,87.51
2018-01-13T09:16:22.777Z,87.48
2018-01-13T09:17:27.486Z,87.46
2018-01-13T09:18:32.822Z,87.42
2018-01-13T09:19:37.474Z,87.41
2018-01-13T09:20:42.210Z,87.40
2018-01-13T09:21:47.030Z,87.42
2018-01-13T09:22:51.653Z,87.43
2018-01-13T09:23:56.362Z,87.40
2018-01-13T09:25:01.405Z,87.37
2018-01-13T09:26:06.028Z,87.37
2018-01-13T09:27:10.638Z,87.37
2018-01-13T09:28:15.387Z,87.35
2018-01-13T09:29:20.143Z,87.30
2018-01-13T09:30:24.893Z,87.24
2018-01-13T09:31:29.949Z,87.23
2018-01-13T09:32:34.852Z,87.14
2018-01-13T09:33:39.613Z,87.10
2018-01-13T09:34:44.864Z,87.01
2018-01-13T09:35:49.943Z,86.79
2018-01-13T09:36:55.103Z,86.75
2018-01-13T09:38:00.828Z,86.82
2018-01-13T09:39:07.229Z,86.87
2018-01-13T09:40:13.355Z,86.87
2018-01-13T09:41:19.496Z,86.70
2018-01-13T09:42:25.112Z,86.55
2018-01-13T09:43:34.489Z,86.45
2018-01-13T09:44:39.153Z,86.35
2018-01-13T09:45:44.678Z,86.30
2018-01-13T09:46:50.448Z,86.23
2018-01-13T09:47:55.636Z,85.98
2018-01-13T09:49:01.666Z,85.90
2018-01-13T09:50:07.058Z,85.78
2018-01-13T09:51:11.897Z,85.74
2018-01-13T09:52:17.113Z,85.67
2018-01-13T09:53:22.254Z,85.62
2018-01-13T09:54:28.816Z,85.55
2018-01-13T09:55:35.602Z,85.46
2018-01-13T09:56:41.428Z,85.42
2018-01-13T09:57:46.973Z,85.20
2018-01-13T09:58:52.553Z,85.19
2018-01-13T09:59:58.773Z,85.21
2018-01-13T10:01:04.632Z,85.25
2018-01-13T10:02:10.551Z,85.27
2018-01-13T10:03:16.214Z,85.22
2018-01-13T10:04:21.935Z,85.14
2018-01-13T10:05:27.414Z,85.22
2018-01-13T10:06:33.043Z,85.15
2018-01-13T10:07:38.828Z,85.05
2018-01-13T10:08:44.498Z,84.99
2018-01-13T10:09:49.920Z,84.95
2018-01-13T10:10:56.215Z,84.80
2018-01-13T10:12:01.756Z,84.71
2018-01-13T10:13:06.721Z,84.71
2018-01-13T10:14:11.797Z,84.75
2018-01-13T10:15:17.095Z,84.71
2018-01-13T10:16:21.804Z,84.68
2018-01-13T10:17:26.539Z,84.53
2018-01-13T10:18:31.440Z,84.43
2018-01-13T10:19:36.160Z,84.53
2018-01-13T10:20:40.968Z,84.55
2018-01-13T10:21:46.120Z,84.54
2018-01-13T10:22:50.850Z,84.52
2018-01-13T10:23:55.525Z,84.58
2018-01-13T10:25:00.185Z,84.48
2018-01-13T10:26:04.799Z,84.39
2018-01-13T10:27:09.457Z,84.34
2018-01-13T10:28:14.645Z,84.20
2018-01-13T10:29:19.261Z,83.97
2018-01-13T10:30:23.868Z,84.03
2018-01-13T10:31:28.655Z,83.94
2018-01-13T10:32:33.329Z,84.03
2018-01-13T10:33:38.082Z,83.95
2018-01-13T10:34:44.096Z,83.88
2018-01-13T10:35:48.870Z,83.87
2018-01-13T10:36:53.650Z,83.85
2018-01-13T10:37:58.489Z,83.88
2018-01-13T10:39:03.264Z,83.84
2018-01-13T10:40:08.013Z,83.64
2018-01-13T10:41:13.065Z,83.55
2018-01-13T10:42:17.818Z,83.41
2018-01-13T10:43:22.449Z,83.38
2018-01-13T10:44:27.164Z,83.26
2018-01-13T10:45:31.853Z,83.18
2018-01-13T10:46:36.441Z,82.94
2018-01-13T10:47:46.506Z,82.83
2018-01-13T10:48:51.320Z,82.65
2018-01-13T10:49:55.972Z,82.48
2018-01-13T10:51:01.133Z,82.42
2018-01-13T10:52:05.981Z,82.17
2018-01-13T10:53:10.755Z,81.86
2018-01-13T10:54:15.854Z,81.84
2018-01-13T10:55:21.080Z,81.65
2018-01-13T10:56:25.941Z,81.62
2018-01-13T10:57:30.726Z,81.59
2018-01-13T10:58:35.562Z,81.55
2018-01-13T10:59:40.173Z,81.47
2018-01-13T11:00:45.521Z,81.27
2018-01-13T11:01:50.269Z,81.13
2018-01-13T11:02:54.993Z,81.00
2018-01-13T11:03:59.859Z,80.99
2018-01-13T11:05:04.556Z,80.76
2018-01-13T11:06:09.357Z,80.56
2018-01-13T11:07:14.417Z,80.38
2018-01-13T11:08:19.214Z,80.13
2018-01-13T11:09:23.685Z,79.90
2018-01-13T11:10:28.147Z,79.86
2018-01-13T11:11:32.672Z,79.77
2018-01-13T11:12:37.348Z,79.63
2018-01-13T11:13:42.249Z,79.54
2018-01-13T11:14:46.964Z,79.52
2018-01-13T11:15:51.586Z,79.41
2018-01-13T11:16:56.360Z,79.40
2018-01-13T11:18:01.053Z,79.40
2018-01-13T11:19:05.710Z,79.29
2018-01-13T11:20:10.844Z,79.11
2018-01-13T11:21:15.544Z,79.06
2018-01-13T11:22:20.232Z,79.03
2018-01-13T11:23:24.935Z,78.94
2018-01-13T11:24:29.412Z,78.94
2018-01-13T11:25:34.008Z,78.85
2018-01-13T11:26:38.947Z,78.74
2018-01-13T11:27:43.709Z,78.50
2018-01-13T11:28:48.332Z,78.43
2018-01-13T11:29:52.996Z,78.54
2018-01-13T11:30:57.652Z,78.61
2018-01-13T11:32:02.340Z,78.60
2018-01-13T11:33:07.355Z,78.37
2018-01-13T11:34:12.013Z,78.49
2018-01-13T11:35:16.621Z,78.33
2018-01-13T11:36:21.287Z,78.32
2018-01-13T11:37:25.920Z,78.31
2018-01-13T11:38:30.671Z,78.28
2018-01-13T11:39:35.724Z,78.23
2018-01-13T11:40:40.505Z,78.31
2018-01-13T11:41:45.256Z,78.32
2018-01-13T11:42:49.946Z,78.19
2018-01-13T11:43:54.648Z,77.94
2018-01-13T11:44:59.384Z,77.90
2018-01-13T11:46:04.407Z,77.95
2018-01-13T11:47:09.120Z,77.93
2018-01-13T11:48:13.813Z,78.04
2018-01-13T11:49:18.512Z,78.03
2018-01-13T11:50:23.220Z,78.04
2018-01-13T11:51:27.885Z,77.96
2018-01-13T11:52:32.970Z,77.93
2018-01-13T11:53:37.603Z,78.03
2018-01-13T11:54:42.641Z,78.06
2018-01-13T11:55:47.296Z,78.11
2018-01-13T11:56:51.905Z,78.08
2018-01-13T11:57:56.552Z,78.16
2018-01-13T11:59:01.676Z,78.19
2018-01-13T12:00:06.385Z,78.18
2018-01-13T12:01:11.092Z,78.09
2018-01-13T12:02:15.771Z,78.16
2018-01-13T12:03:20.398Z,78.09
2018-01-13T12:04:25.061Z,78.13
2018-01-13T12:05:30.385Z,78.07
2018-01-13T12:06:35.092Z,77.96
2018-01-13T12:07:39.805Z,77.92
2018-01-13T12:08:44.559Z,77.94
2018-01-13T12:09:49.322Z,78.00
2018-01-13T12:10:54.016Z,77.98
2018-01-13T12:11:59.015Z,78.01
2018-01-13T12:13:03.747Z,78.06
2018-01-13T12:14:08.383Z,78.10
2018-01-13T12:15:12.980Z,78.04
2018-01-13T12:16:17.902Z,78.13
2018-01-13T12:17:22.528Z,78.17
2018-01-13T12:18:27.474Z,78.23
2018-01-13T12:19:32.386Z,78.18
2018-01-13T12:20:37.101Z,78.06
2018-01-13T12:21:41.835Z,77.86
2018-01-13T12:22:47.418Z,77.89
2018-01-13T12:23:52.156Z,77.91
2018-01-13T12:24:57.282Z,77.88
2018-01-13T12:26:02.021Z,77.96
2018-01-13T12:27:06.760Z,77.99
2018-01-13T12:28:11.576Z,77.72
2018-01-13T12:29:16.374Z,77.58
2018-01-13T12:30:21.111Z,77.60
2018-01-13T12:31:26.195Z,77.72
2018-01-13T12:32:30.934Z,77.56
2018-01-13T12:33:35.732Z,77.52
2018-01-13T12:34:40.341Z,77.43
2018-01-13T12:35:44.811Z,77.44
2018-01-13T12:36:49.328Z,77.43
2018-01-13T12:37:53.775Z,77.46
2018-01-13T12:38:58.277Z,77.51
2018-01-13T12:40:02.837Z,77.45
2018-01-13T12:41:07.497Z,77.38
2018-01-13T12:42:12.132Z,77.38
2018-01-13T12:43:17.324Z,77.34
2018-01-13T12:44:22.080Z,77.34
2018-01-13T12:45:26.760Z,77.31
2018-01-13T12:46:31.535Z,77.35
2018-01-13T12:47:36.249Z,77.32
2018-01-13T12:48:41.056Z,77.27
2018-01-13T12:49:46.114Z,77.14
2018-01-13T12:50:50.920Z,77.16
2018-01-13T12:51:56.305Z,77.05
2018-01-13T12:53:01.378Z,77.02
2018-01-13T12:54:06.001Z,77.02
2018-01-13T12:55:10.549Z,76.99
2018-01-13T12:56:15.367Z,76.96
2018-01-13T12:57:19.969Z,76.87
2018-01-13T12:58:24.513Z,76.89
2018-01-13T12:59:29.285Z,76.90
2018-01-13T13:00:34.012Z,76.75
2018-01-13T13:01:39.255Z,76.65
2018-01-13T13:02:44.012Z,76.65
2018-01-13T13:03:49.019Z,76.53
2018-01-13T13:04:53.760Z,76.46
2018-01-13T13:05:58.666Z,76.40
2018-01-13T13:07:03.409Z,76.40
2018-01-13T13:08:08.551Z,76.35
2018-01-13T13:09:13.357Z,76.26
2018-01-13T13:10:18.201Z,76.25
2018-01-13T13:11:22.946Z,76.29
2018-01-13T13:12:27.671Z,76.09
2018-01-13T13:13:32.421Z,75.88
2018-01-13T13:14:37.392Z,75.75
2018-01-13T13:15:43.087Z,75.64
2018-01-13T13:16:47.709Z,75.47
2018-01-13T13:17:52.382Z,75.44
2018-01-13T13:18:57.094Z,75.39
2018-01-13T13:20:01.746Z,75.33
2018-01-13T13:21:06.712Z,75.22
2018-01-13T13:22:11.470Z,75.01
2018-01-13T13:23:16.275Z,74.93
2018-01-13T13:24:21.046Z,74.96
2018-01-13T13:25:25.807Z,74.93
2018-01-13T13:26:30.562Z,74.89
2018-01-13T13:27:35.610Z,74.77
2018-01-13T13:28:40.494Z,74.70
2018-01-13T13:29:45.226Z,74.74
2018-01-13T13:30:50.033Z,74.72
2018-01-13T13:31:54.750Z,74.55
2018-01-13T13:32:59.369Z,74.56
2018-01-13T13:34:04.374Z,74.54
2018-01-13T13:35:09.936Z,74.51
2018-01-13T13:36:14.735Z,74.54
2018-01-13T13:37:19.755Z,74.44
2018-01-13T13:38:24.393Z,74.27
2018-01-13T13:39:29.219Z,74.26
2018-01-13T13:40:35.150Z,74.25
2018-01-13T13:41:39.907Z,74.21
2018-01-13T13:42:44.756Z,74.17
2018-01-13T13:43:49.498Z,74.25
2018-01-13T13:44:54.240Z,74.16
2018-01-13T13:45:59.008Z,74.12
2018-01-13T13:47:04.157Z,74.15
2018-01-13T13:48:08.889Z,74.13
2018-01-13T13:49:13.758Z,74.00
2018-01-13T13:50:18.570Z,73.97
2018-01-13T13:51:23.349Z,73.92
2018-01-13T13:52:28.044Z,73.93
2018-01-13T13:53:33.417Z,73.95
2018-01-13T13:54:38.248Z,73.92